sensor_id;sensor_type;location;lat;lon;timestamp;pressure;altitude;pressure_sealevel;temperature;humidity
55540;BME280;41384;51.418;7.286;2023-01-30T00:00:30;100041.13;;;2.86;100.00
55540;BME280;41384;51.418;7.286;2023-01-30T00:02:56;100019.44;;;2.85;100.00
55540;BME280;41384;51.418;7.286;2023-01-30T00:05:21;100012.81;;;2.73;100.00
55540;BME280;41384;51.418;7.286;2023-01-30T00:07:46;100028.91;;;2.86;100.00
55540;BME280;41384;51.418;7.286;2023-01-30T00:10:12;100032.72;;;2.92;100.00
55540;BME280;41384;51.418;7.286;2023-01-30T00:12:37;100036.44;;;2.89;100.00
55540;BME280;41384;51.418;7.286;2023-01-30T00:15:03;100048.06;;;2.95;100.00
55540;BME280;41384;51.418;7.286;2023-01-30T00:17:29;100053.16;;;3.05;100.00
55540;BME280;41384;51.418;7.286;2023-01-30T00:19:54;100047.63;;;2.82;100.00
55540;BME280;41384;51.418;7.286;2023-01-30T00:22:19;100024.59;;;2.95;100.00
55540;BME280;41384;51.418;7.286;2023-01-30T00:24:44;100043.34;;;2.99;100.00
55540;BME280;41384;51.418;7.286;2023-01-30T00:27:10;100029.34;;;3.00;100.00
55540;BME280;41384;51.418;7.286;2023-01-30T00:29:35;100035.44;;;2.90;100.00
55540;BME280;41384;51.418;7.286;2023-01-30T00:32:00;100047.44;;;3.01;100.00
55540;BME280;41384;51.418;7.286;2023-01-30T00:34:26;100026.88;;;2.98;100.00
55540;BME280;41384;51.418;7.286;2023-01-30T00:36:51;100027.56;;;3.00;100.00
55540;BME280;41384;51.418;7.286;2023-01-30T00:39:16;100022.41;;;3.09;100.00
55540;BME280;41384;51.418;7.286;2023-01-30T00:41:41;100014.03;;;3.05;100.00
55540;BME280;41384;51.418;7.286;2023-01-30T00:44:25;99990.97;;;3.10;100.00
55540;BME280;41384;51.418;7.286;2023-01-30T00:47:09;100007.94;;;3.14;100.00
55540;BME280;41384;51.418;7.286;2023-01-30T00:49:35;100005.16;;;3.16;100.00
55540;BME280;41384;51.418;7.286;2023-01-30T00:52:01;99977.91;;;3.10;100.00
55540;BME280;41384;51.418;7.286;2023-01-30T00:54:26;99967.69;;;3.17;100.00
55540;BME280;41384;51.418;7.286;2023-01-30T00:56:52;99984.31;;;3.16;100.00
55540;BME280;41384;51.418;7.286;2023-01-30T00:59:17;99980.28;;;3.21;100.00
55540;BME280;41384;51.418;7.286;2023-01-30T01:01:42;99982.03;;;3.21;100.00
55540;BME280;41384;51.418;7.286;2023-01-30T01:04:08;99972.53;;;3.12;100.00
55540;BME280;41384;51.418;7.286;2023-01-30T01:06:35;99963.44;;;3.16;100.00
55540;BME280;41384;51.418;7.286;2023-01-30T01:09:00;99980.41;;;3.20;100.00
55540;BME280;41384;51.418;7.286;2023-01-30T01:11:25;99967.06;;;3.23;100.00
55540;BME280;41384;51.418;7.286;2023-01-30T01:13:55;99970.53;;;3.32;100.00
55540;BME280;41384;51.418;7.286;2023-01-30T01:16:22;99955.34;;;3.27;100.00
55540;BME280;41384;51.418;7.286;2023-01-30T01:18:48;99937.38;;;3.24;100.00
55540;BME280;41384;51.418;7.286;2023-01-30T01:21:14;99934.59;;;3.17;100.00
55540;BME280;41384;51.418;7.286;2023-01-30T01:23:40;99925.34;;;3.31;100.00
55540;BME280;41384;51.418;7.286;2023-01-30T01:26:05;99922.88;;;3.21;100.00
55540;BME280;41384;51.418;7.286;2023-01-30T01:28:30;99923.22;;;3.27;100.00
55540;BME280;41384;51.418;7.286;2023-01-30T01:30:56;99933.78;;;3.17;100.00
55540;BME280;41384;51.418;7.286;2023-01-30T01:33:26;99941.75;;;3.15;100.00
55540;BME280;41384;51.418;7.286;2023-01-30T01:35:54;99926.47;;;3.20;100.00
55540;BME280;41384;51.418;7.286;2023-01-30T01:38:20;99930.41;;;3.25;100.00
55540;BME280;41384;51.418;7.286;2023-01-30T01:40:45;99942.28;;;3.27;100.00
55540;BME280;41384;51.418;7.286;2023-01-30T01:43:26;99923.81;;;3.12;100.00
55540;BME280;41384;51.418;7.286;2023-01-30T01:45:54;99919.63;;;3.19;100.00
55540;BME280;41384;51.418;7.286;2023-01-30T01:48:31;99920.28;;;3.21;100.00
55540;BME280;41384;51.418;7.286;2023-01-30T01:51:10;99917.50;;;3.23;100.00
55540;BME280;41384;51.418;7.286;2023-01-30T01:53:41;99912.28;;;3.23;100.00
55540;BME280;41384;51.418;7.286;2023-01-30T01:56:09;99899.28;;;3.31;100.00
55540;BME280;41384;51.418;7.286;2023-01-30T01:58:40;99909.91;;;3.38;100.00
55540;BME280;41384;51.418;7.286;2023-01-30T02:01:07;99884.50;;;3.48;100.00
55540;BME280;41384;51.418;7.286;2023-01-30T02:03:36;99894.91;;;3.40;100.00
55540;BME280;41384;51.418;7.286;2023-01-30T02:06:04;99874.66;;;3.34;100.00
55540;BME280;41384;51.418;7.286;2023-01-30T02:08:37;99876.63;;;3.32;100.00
55540;BME280;41384;51.418;7.286;2023-01-30T02:11:14;99897.94;;;3.27;100.00
55540;BME280;41384;51.418;7.286;2023-01-30T02:13:43;99879.06;;;3.33;100.00
55540;BME280;41384;51.418;7.286;2023-01-30T02:16:09;99867.84;;;3.41;100.00
55540;BME280;41384;51.418;7.286;2023-01-30T02:18:38;99865.41;;;3.48;100.00
55540;BME280;41384;51.418;7.286;2023-01-30T02:24:33;99845.81;;;3.44;100.00
55540;BME280;41384;51.418;7.286;2023-01-30T02:27:20;99841.75;;;3.41;100.00
55540;BME280;41384;51.418;7.286;2023-01-30T02:37:59;99830.97;;;3.36;100.00
55540;BME280;41384;51.418;7.286;2023-01-30T02:40:42;99818.59;;;3.46;100.00
55540;BME280;41384;51.418;7.286;2023-01-30T02:43:30;99815.31;;;3.36;100.00
55540;BME280;41384;51.418;7.286;2023-01-30T02:46:04;99819.25;;;3.40;100.00
55540;BME280;41384;51.418;7.286;2023-01-30T02:48:43;99823.66;;;3.48;100.00
55540;BME280;41384;51.418;7.286;2023-01-30T02:51:15;99824.16;;;3.43;100.00
55540;BME280;41384;51.418;7.286;2023-01-30T02:53:42;99825.66;;;3.54;100.00
55540;BME280;41384;51.418;7.286;2023-01-30T02:56:07;99816.66;;;3.48;100.00
55540;BME280;41384;51.418;7.286;2023-01-30T02:58:37;99825.31;;;3.57;100.00
55540;BME280;41384;51.418;7.286;2023-01-30T03:04:08;99818.47;;;3.56;100.00
55540;BME280;41384;51.418;7.286;2023-01-30T03:09:26;99815.34;;;3.53;100.00
55540;BME280;41384;51.418;7.286;2023-01-30T03:12:02;99811.91;;;3.52;100.00
55540;BME280;41384;51.418;7.286;2023-01-30T03:14:40;99813.59;;;3.61;100.00
55540;BME280;41384;51.418;7.286;2023-01-30T03:17:09;99807.06;;;3.65;100.00
55540;BME280;41384;51.418;7.286;2023-01-30T03:19:35;99797.09;;;3.61;100.00
55540;BME280;41384;51.418;7.286;2023-01-30T03:22:00;99800.84;;;3.58;100.00
55540;BME280;41384;51.418;7.286;2023-01-30T03:24:26;99789.78;;;3.73;100.00
55540;BME280;41384;51.418;7.286;2023-01-30T03:27:01;99794.16;;;3.64;100.00
55540;BME280;41384;51.418;7.286;2023-01-30T03:29:27;99789.59;;;3.66;100.00
55540;BME280;41384;51.418;7.286;2023-01-30T03:31:53;99781.75;;;3.58;100.00
55540;BME280;41384;51.418;7.286;2023-01-30T03:34:18;99763.66;;;3.64;100.00
55540;BME280;41384;51.418;7.286;2023-01-30T03:36:43;99762.19;;;3.70;100.00
55540;BME280;41384;51.418;7.286;2023-01-30T03:39:09;99760.75;;;3.68;100.00
55540;BME280;41384;51.418;7.286;2023-01-30T03:41:34;99754.88;;;3.74;100.00
55540;BME280;41384;51.418;7.286;2023-01-30T03:43:59;99764.47;;;3.73;100.00
55540;BME280;41384;51.418;7.286;2023-01-30T03:46:25;99754.88;;;3.65;100.00
55540;BME280;41384;51.418;7.286;2023-01-30T03:48:50;99732.50;;;3.71;100.00
55540;BME280;41384;51.418;7.286;2023-01-30T03:51:15;99739.34;;;3.72;100.00
55540;BME280;41384;51.418;7.286;2023-01-30T03:53:40;99738.38;;;3.82;100.00
55540;BME280;41384;51.418;7.286;2023-01-30T03:56:06;99718.97;;;3.68;100.00
55540;BME280;41384;51.418;7.286;2023-01-30T03:58:31;99714.41;;;3.78;100.00
55540;BME280;41384;51.418;7.286;2023-01-30T04:00:57;99721.91;;;3.81;100.00
55540;BME280;41384;51.418;7.286;2023-01-30T04:03:23;99720.72;;;3.92;100.00
55540;BME280;41384;51.418;7.286;2023-01-30T04:05:48;99721.56;;;3.76;100.00
55540;BME280;41384;51.418;7.286;2023-01-30T04:08:16;99717.81;;;3.78;100.00
55540;BME280;41384;51.418;7.286;2023-01-30T04:10:41;99717.00;;;3.78;100.00
55540;BME280;41384;51.418;7.286;2023-01-30T04:13:07;99731.03;;;3.77;100.00
55540;BME280;41384;51.418;7.286;2023-01-30T04:15:32;99725.63;;;3.87;100.00
55540;BME280;41384;51.418;7.286;2023-01-30T04:17:57;99721.41;;;3.77;100.00
55540;BME280;41384;51.418;7.286;2023-01-30T04:20:23;99711.59;;;3.88;100.00
55540;BME280;41384;51.418;7.286;2023-01-30T04:22:48;99727.59;;;3.93;100.00
55540;BME280;41384;51.418;7.286;2023-01-30T04:25:14;99718.44;;;3.89;100.00
55540;BME280;41384;51.418;7.286;2023-01-30T04:27:39;99701.81;;;3.90;100.00
55540;BME280;41384;51.418;7.286;2023-01-30T04:30:05;99711.78;;;3.86;100.00
55540;BME280;41384;51.418;7.286;2023-01-30T04:32:30;99707.34;;;3.87;100.00
55540;BME280;41384;51.418;7.286;2023-01-30T04:34:55;99705.06;;;3.92;100.00
55540;BME280;41384;51.418;7.286;2023-01-30T04:37:21;99705.38;;;3.97;100.00
55540;BME280;41384;51.418;7.286;2023-01-30T04:39:46;99703.59;;;3.98;100.00
55540;BME280;41384;51.418;7.286;2023-01-30T04:42:11;99713.22;;;4.05;100.00
55540;BME280;41384;51.418;7.286;2023-01-30T04:44:36;99700.66;;;3.92;100.00
55540;BME280;41384;51.418;7.286;2023-01-30T04:47:02;99702.47;;;4.00;100.00
55540;BME280;41384;51.418;7.286;2023-01-30T04:49:27;99710.94;;;4.11;100.00
55540;BME280;41384;51.418;7.286;2023-01-30T04:51:52;99708.66;;;3.99;100.00
55540;BME280;41384;51.418;7.286;2023-01-30T04:54:17;99727.44;;;3.94;100.00
55540;BME280;41384;51.418;7.286;2023-01-30T04:56:43;99717.50;;;3.98;100.00
55540;BME280;41384;51.418;7.286;2023-01-30T04:59:08;99703.75;;;4.04;100.00
55540;BME280;41384;51.418;7.286;2023-01-30T05:01:36;99687.28;;;3.96;100.00
55540;BME280;41384;51.418;7.286;2023-01-30T05:04:02;99696.09;;;3.94;100.00
55540;BME280;41384;51.418;7.286;2023-01-30T05:06:27;99682.88;;;4.04;100.00
55540;BME280;41384;51.418;7.286;2023-01-30T05:08:55;99671.13;;;4.00;100.00
55540;BME280;41384;51.418;7.286;2023-01-30T05:11:21;99691.53;;;3.97;100.00
55540;BME280;41384;51.418;7.286;2023-01-30T05:13:47;99691.69;;;4.03;100.00
55540;BME280;41384;51.418;7.286;2023-01-30T05:16:13;99685.66;;;3.94;100.00
55540;BME280;41384;51.418;7.286;2023-01-30T05:18:39;99685.97;;;4.00;100.00
55540;BME280;41384;51.418;7.286;2023-01-30T05:21:12;99662.66;;;3.98;100.00
55540;BME280;41384;51.418;7.286;2023-01-30T05:23:38;99671.91;;;4.09;100.00
55540;BME280;41384;51.418;7.286;2023-01-30T05:26:03;99674.22;;;3.96;100.00
55540;BME280;41384;51.418;7.286;2023-01-30T05:28:29;99673.88;;;4.07;100.00
55540;BME280;41384;51.418;7.286;2023-01-30T05:31:12;99679.59;;;4.02;100.00
55540;BME280;41384;51.418;7.286;2023-01-30T05:33:39;99684.47;;;4.14;100.00
55540;BME280;41384;51.418;7.286;2023-01-30T05:36:05;99677.44;;;4.14;100.00
55540;BME280;41384;51.418;7.286;2023-01-30T05:38:31;99668.81;;;4.14;100.00
55540;BME280;41384;51.418;7.286;2023-01-30T05:41:00;99666.16;;;4.22;100.00
55540;BME280;41384;51.418;7.286;2023-01-30T05:43:26;99665.22;;;4.15;100.00
55540;BME280;41384;51.418;7.286;2023-01-30T05:45:53;99655.25;;;4.10;100.00
55540;BME280;41384;51.418;7.286;2023-01-30T05:48:18;99663.06;;;4.18;100.00
55540;BME280;41384;51.418;7.286;2023-01-30T05:50:44;99654.09;;;4.21;100.00
55540;BME280;41384;51.418;7.286;2023-01-30T05:53:09;99657.00;;;4.26;100.00
55540;BME280;41384;51.418;7.286;2023-01-30T05:55:35;99660.75;;;4.23;100.00
55540;BME280;41384;51.418;7.286;2023-01-30T05:58:00;99652.28;;;4.21;100.00
55540;BME280;41384;51.418;7.286;2023-01-30T06:00:25;99657.66;;;4.28;100.00
55540;BME280;41384;51.418;7.286;2023-01-30T06:02:51;99668.44;;;4.25;100.00
55540;BME280;41384;51.418;7.286;2023-01-30T06:05:16;99661.22;;;4.35;100.00
55540;BME280;41384;51.418;7.286;2023-01-30T06:07:41;99666.78;;;4.32;100.00
55540;BME280;41384;51.418;7.286;2023-01-30T06:10:07;99671.50;;;4.29;100.00
55540;BME280;41384;51.418;7.286;2023-01-30T06:12:32;99671.03;;;4.33;100.00
55540;BME280;41384;51.418;7.286;2023-01-30T06:14:57;99688.03;;;4.29;100.00
55540;BME280;41384;51.418;7.286;2023-01-30T06:17:23;99688.00;;;4.37;100.00
55540;BME280;41384;51.418;7.286;2023-01-30T06:19:48;99693.03;;;4.39;100.00
55540;BME280;41384;51.418;7.286;2023-01-30T06:22:13;99694.03;;;4.30;100.00
55540;BME280;41384;51.418;7.286;2023-01-30T06:24:38;99697.81;;;4.35;100.00
55540;BME280;41384;51.418;7.286;2023-01-30T06:27:04;99702.72;;;4.30;100.00
55540;BME280;41384;51.418;7.286;2023-01-30T06:29:29;99697.50;;;4.30;100.00
55540;BME280;41384;51.418;7.286;2023-01-30T06:31:54;99684.44;;;4.30;100.00
55540;BME280;41384;51.418;7.286;2023-01-30T06:34:19;99690.28;;;4.41;100.00
55540;BME280;41384;51.418;7.286;2023-01-30T06:36:45;99682.59;;;4.47;100.00
55540;BME280;41384;51.418;7.286;2023-01-30T06:39:10;99686.97;;;4.47;100.00
55540;BME280;41384;51.418;7.286;2023-01-30T06:41:35;99701.34;;;4.51;100.00
55540;BME280;41384;51.418;7.286;2023-01-30T06:44:00;99696.09;;;4.51;100.00
55540;BME280;41384;51.418;7.286;2023-01-30T06:46:26;99710.97;;;4.59;100.00
55540;BME280;41384;51.418;7.286;2023-01-30T06:48:51;99726.69;;;4.50;100.00
55540;BME280;41384;51.418;7.286;2023-01-30T06:51:16;99720.28;;;4.53;100.00
55540;BME280;41384;51.418;7.286;2023-01-30T06:53:42;99718.34;;;4.47;100.00
55540;BME280;41384;51.418;7.286;2023-01-30T06:56:07;99722.91;;;4.53;100.00
55540;BME280;41384;51.418;7.286;2023-01-30T06:58:32;99720.28;;;4.53;100.00
55540;BME280;41384;51.418;7.286;2023-01-30T07:00:57;99711.41;;;4.62;100.00
55540;BME280;41384;51.418;7.286;2023-01-30T07:03:23;99717.63;;;4.61;100.00
55540;BME280;41384;51.418;7.286;2023-01-30T07:05:48;99706.69;;;4.66;100.00
55540;BME280;41384;51.418;7.286;2023-01-30T07:08:14;99699.19;;;4.63;100.00
55540;BME280;41384;51.418;7.286;2023-01-30T07:10:41;99710.09;;;4.66;100.00
55540;BME280;41384;51.418;7.286;2023-01-30T07:13:06;99703.88;;;4.67;100.00
55540;BME280;41384;51.418;7.286;2023-01-30T07:15:32;99701.91;;;4.70;100.00
55540;BME280;41384;51.418;7.286;2023-01-30T07:17:57;99705.81;;;4.74;100.00
55540;BME280;41384;51.418;7.286;2023-01-30T07:20:22;99693.56;;;4.74;100.00
55540;BME280;41384;51.418;7.286;2023-01-30T07:22:52;99702.09;;;4.68;100.00
55540;BME280;41384;51.418;7.286;2023-01-30T07:25:19;99696.81;;;4.76;100.00
55540;BME280;41384;51.418;7.286;2023-01-30T07:27:50;99692.88;;;4.80;100.00
55540;BME280;41384;51.418;7.286;2023-01-30T07:30:16;99716.22;;;4.82;100.00
55540;BME280;41384;51.418;7.286;2023-01-30T07:32:41;99718.84;;;4.82;100.00
55540;BME280;41384;51.418;7.286;2023-01-30T07:35:07;99714.78;;;4.79;100.00
55540;BME280;41384;51.418;7.286;2023-01-30T07:37:32;99722.44;;;4.81;100.00
55540;BME280;41384;51.418;7.286;2023-01-30T07:39:57;99720.16;;;4.86;100.00
55540;BME280;41384;51.418;7.286;2023-01-30T07:42:22;99720.81;;;4.80;100.00
55540;BME280;41384;51.418;7.286;2023-01-30T07:44:48;99727.66;;;4.89;100.00
55540;BME280;41384;51.418;7.286;2023-01-30T07:47:13;99741.53;;;4.90;100.00
55540;BME280;41384;51.418;7.286;2023-01-30T07:49:39;99738.94;;;4.90;100.00
55540;BME280;41384;51.418;7.286;2023-01-30T07:52:04;99724.06;;;4.90;100.00
55540;BME280;41384;51.418;7.286;2023-01-30T07:54:29;99732.91;;;4.89;100.00
55540;BME280;41384;51.418;7.286;2023-01-30T07:56:55;99739.91;;;4.89;100.00
55540;BME280;41384;51.418;7.286;2023-01-30T07:59:20;99751.84;;;4.83;100.00
55540;BME280;41384;51.418;7.286;2023-01-30T08:01:45;99749.53;;;4.96;100.00
55540;BME280;41384;51.418;7.286;2023-01-30T08:04:11;99769.50;;;4.89;100.00
55540;BME280;41384;51.418;7.286;2023-01-30T08:06:36;99752.19;;;4.80;100.00
55540;BME280;41384;51.418;7.286;2023-01-30T08:09:04;99756.25;;;4.91;100.00
55540;BME280;41384;51.418;7.286;2023-01-30T08:11:29;99758.41;;;4.87;100.00
55540;BME280;41384;51.418;7.286;2023-01-30T08:13:55;99754.16;;;4.86;100.00
55540;BME280;41384;51.418;7.286;2023-01-30T08:16:20;99754.94;;;4.95;100.00
55540;BME280;41384;51.418;7.286;2023-01-30T08:18:45;99752.31;;;4.95;100.00
55540;BME280;41384;51.418;7.286;2023-01-30T08:21:10;99755.41;;;4.99;100.00
55540;BME280;41384;51.418;7.286;2023-01-30T08:23:36;99762.31;;;4.91;100.00
55540;BME280;41384;51.418;7.286;2023-01-30T08:26:02;99757.69;;;5.02;100.00
55540;BME280;41384;51.418;7.286;2023-01-30T08:28:28;99761.94;;;5.03;100.00
55540;BME280;41384;51.418;7.286;2023-01-30T08:30:55;99766.03;;;4.97;100.00
55540;BME280;41384;51.418;7.286;2023-01-30T08:33:21;99762.56;;;5.05;100.00
55540;BME280;41384;51.418;7.286;2023-01-30T08:35:47;99765.88;;;4.99;100.00
55540;BME280;41384;51.418;7.286;2023-01-30T08:38:12;99762.63;;;4.96;100.00
55540;BME280;41384;51.418;7.286;2023-01-30T08:40:37;99773.03;;;5.05;100.00
55540;BME280;41384;51.418;7.286;2023-01-30T08:43:03;99769.59;;;5.04;100.00
55540;BME280;41384;51.418;7.286;2023-01-30T08:45:29;99774.19;;;5.02;100.00
55540;BME280;41384;51.418;7.286;2023-01-30T08:47:59;99766.53;;;5.01;100.00
55540;BME280;41384;51.418;7.286;2023-01-30T08:50:24;99770.56;;;5.03;100.00
55540;BME280;41384;51.418;7.286;2023-01-30T08:52:50;99775.47;;;5.06;100.00
55540;BME280;41384;51.418;7.286;2023-01-30T08:55:15;99782.47;;;5.14;100.00
55540;BME280;41384;51.418;7.286;2023-01-30T08:57:42;99776.41;;;5.14;100.00
55540;BME280;41384;51.418;7.286;2023-01-30T09:00:07;99770.88;;;5.08;100.00
55540;BME280;41384;51.418;7.286;2023-01-30T09:02:33;99758.97;;;5.06;100.00
55540;BME280;41384;51.418;7.286;2023-01-30T09:04:58;99782.84;;;5.03;100.00
55540;BME280;41384;51.418;7.286;2023-01-30T09:07:24;99786.47;;;5.02;100.00
55540;BME280;41384;51.418;7.286;2023-01-30T09:09:49;99773.69;;;5.07;100.00
55540;BME280;41384;51.418;7.286;2023-01-30T09:12:15;99767.28;;;5.09;100.00
55540;BME280;41384;51.418;7.286;2023-01-30T09:14:40;99772.34;;;5.11;100.00
55540;BME280;41384;51.418;7.286;2023-01-30T09:17:05;99779.22;;;5.12;100.00
55540;BME280;41384;51.418;7.286;2023-01-30T09:19:31;99791.00;;;5.08;100.00
55540;BME280;41384;51.418;7.286;2023-01-30T09:21:56;99799.19;;;5.05;100.00
55540;BME280;41384;51.418;7.286;2023-01-30T09:24:22;99797.03;;;5.08;100.00
55540;BME280;41384;51.418;7.286;2023-01-30T09:26:54;99803.44;;;5.06;100.00
55540;BME280;41384;51.418;7.286;2023-01-30T09:29:22;99804.09;;;5.08;100.00
55540;BME280;41384;51.418;7.286;2023-01-30T09:31:47;99805.84;;;5.16;100.00
55540;BME280;41384;51.418;7.286;2023-01-30T09:34:13;99806.97;;;5.21;100.00
55540;BME280;41384;51.418;7.286;2023-01-30T09:36:38;99804.59;;;5.03;100.00
55540;BME280;41384;51.418;7.286;2023-01-30T09:39:04;99826.47;;;5.10;100.00
55540;BME280;41384;51.418;7.286;2023-01-30T09:41:34;99811.44;;;5.04;100.00
55540;BME280;41384;51.418;7.286;2023-01-30T09:47:08;99796.59;;;5.05;100.00
55540;BME280;41384;51.418;7.286;2023-01-30T09:50:10;99809.97;;;5.10;100.00
55540;BME280;41384;51.418;7.286;2023-01-30T09:52:56;99815.34;;;5.08;100.00
55540;BME280;41384;51.418;7.286;2023-01-30T09:55:27;99819.75;;;5.16;100.00
55540;BME280;41384;51.418;7.286;2023-01-30T09:57:56;99831.31;;;5.22;100.00
55540;BME280;41384;51.418;7.286;2023-01-30T10:00:42;99830.69;;;5.20;100.00
55540;BME280;41384;51.418;7.286;2023-01-30T10:13:48;99850.16;;;5.17;100.00
55540;BME280;41384;51.418;7.286;2023-01-30T10:16:17;99845.56;;;5.19;100.00
55540;BME280;41384;51.418;7.286;2023-01-30T10:19:47;99856.50;;;5.23;100.00
55540;BME280;41384;51.418;7.286;2023-01-30T10:27:00;99846.53;;;5.26;100.00
55540;BME280;41384;51.418;7.286;2023-01-30T10:29:31;99860.09;;;5.30;100.00
55540;BME280;41384;51.418;7.286;2023-01-30T10:32:02;99849.75;;;5.37;100.00
55540;BME280;41384;51.418;7.286;2023-01-30T10:34:39;99833.19;;;5.45;100.00
55540;BME280;41384;51.418;7.286;2023-01-30T10:37:20;99843.19;;;5.41;100.00
55540;BME280;41384;51.418;7.286;2023-01-30T10:40:23;99837.50;;;5.37;100.00
55540;BME280;41384;51.418;7.286;2023-01-30T10:45:49;99851.06;;;5.33;100.00
55540;BME280;41384;51.418;7.286;2023-01-30T10:48:51;99832.13;;;5.31;100.00
55540;BME280;41384;51.418;7.286;2023-01-30T10:51:26;99830.00;;;5.26;100.00
55540;BME280;41384;51.418;7.286;2023-01-30T10:56:39;99845.66;;;5.43;100.00
55540;BME280;41384;51.418;7.286;2023-01-30T10:59:29;99837.50;;;5.37;100.00
55540;BME280;41384;51.418;7.286;2023-01-30T11:04:37;99838.28;;;5.38;98.80
55540;BME280;41384;51.418;7.286;2023-01-30T11:07:06;99831.97;;;5.32;99.64
55540;BME280;41384;51.418;7.286;2023-01-30T11:09:51;99855.19;;;5.27;100.00
55540;BME280;41384;51.418;7.286;2023-01-30T11:12:17;99845.69;;;5.34;99.96
55540;BME280;41384;51.418;7.286;2023-01-30T11:15:08;99833.88;;;5.38;96.94
55540;BME280;41384;51.418;7.286;2023-01-30T11:17:36;99836.47;;;5.47;97.09
55540;BME280;41384;51.418;7.286;2023-01-30T11:20:13;99830.06;;;5.49;98.74
55540;BME280;41384;51.418;7.286;2023-01-30T11:23:19;99837.94;;;5.41;99.14
55540;BME280;41384;51.418;7.286;2023-01-30T11:25:48;99854.31;;;5.43;98.80
55540;BME280;41384;51.418;7.286;2023-01-30T11:28:14;99846.94;;;5.47;98.93
55540;BME280;41384;51.418;7.286;2023-01-30T11:30:49;99861.16;;;5.44;98.14
55540;BME280;41384;51.418;7.286;2023-01-30T11:33:16;99856.56;;;5.46;100.00
55540;BME280;41384;51.418;7.286;2023-01-30T11:35:54;99851.03;;;5.41;100.00
55540;BME280;41384;51.418;7.286;2023-01-30T11:38:26;99854.13;;;5.45;98.19
55540;BME280;41384;51.418;7.286;2023-01-30T11:43:42;99849.84;;;5.52;97.41
55540;BME280;41384;51.418;7.286;2023-01-30T11:46:09;99836.28;;;5.48;97.95
55540;BME280;41384;51.418;7.286;2023-01-30T11:48:44;99838.63;;;5.66;98.38
55540;BME280;41384;51.418;7.286;2023-01-30T11:51:12;99849.75;;;5.68;96.77
55540;BME280;41384;51.418;7.286;2023-01-30T11:53:43;99841.13;;;5.60;96.65
55540;BME280;41384;51.418;7.286;2023-01-30T11:58:56;99841.50;;;5.48;100.00
55540;BME280;41384;51.418;7.286;2023-01-30T12:01:30;99848.63;;;5.63;100.00
55540;BME280;41384;51.418;7.286;2023-01-30T12:03:57;99841.16;;;5.51;100.00
55540;BME280;41384;51.418;7.286;2023-01-30T12:06:29;99852.91;;;5.55;100.00
55540;BME280;41384;51.418;7.286;2023-01-30T12:08:56;99859.78;;;5.57;99.36
55540;BME280;41384;51.418;7.286;2023-01-30T12:11:39;99863.75;;;5.52;100.00
55540;BME280;41384;51.418;7.286;2023-01-30T12:14:37;99885.28;;;5.63;100.00
55540;BME280;41384;51.418;7.286;2023-01-30T12:17:11;99896.53;;;5.72;100.00
55540;BME280;41384;51.418;7.286;2023-01-30T12:19:40;99850.44;;;5.62;100.00
55540;BME280;41384;51.418;7.286;2023-01-30T12:24:49;99845.41;;;5.52;100.00
55540;BME280;41384;51.418;7.286;2023-01-30T12:27:36;99859.09;;;5.63;99.92
55540;BME280;41384;51.418;7.286;2023-01-30T12:30:23;99849.16;;;5.58;100.00
55540;BME280;41384;51.418;7.286;2023-01-30T12:32:54;99855.72;;;5.54;100.00
55540;BME280;41384;51.418;7.286;2023-01-30T12:35:26;99868.59;;;5.64;100.00
55540;BME280;41384;51.418;7.286;2023-01-30T12:38:20;99866.50;;;5.59;100.00
55540;BME280;41384;51.418;7.286;2023-01-30T12:40:52;99863.63;;;5.77;99.97
55540;BME280;41384;51.418;7.286;2023-01-30T12:51:53;99872.13;;;5.79;92.89
55540;BME280;41384;51.418;7.286;2023-01-30T12:57:33;99865.34;;;5.85;91.25
55540;BME280;41384;51.418;7.286;2023-01-30T13:00:21;99878.75;;;5.90;90.78
55540;BME280;41384;51.418;7.286;2023-01-30T13:08:56;99861.09;;;5.84;90.71
55540;BME280;41384;51.418;7.286;2023-01-30T13:14:08;99865.94;;;5.95;88.55
55540;BME280;41384;51.418;7.286;2023-01-30T13:22:19;99893.94;;;6.03;89.11
55540;BME280;41384;51.418;7.286;2023-01-30T13:24:53;99905.56;;;6.01;88.61
55540;BME280;41384;51.418;7.286;2023-01-30T13:27:23;99908.34;;;5.99;90.73
55540;BME280;41384;51.418;7.286;2023-01-30T13:29:51;99909.94;;;6.08;90.56
55540;BME280;41384;51.418;7.286;2023-01-30T13:32:38;99914.31;;;6.16;89.65
55540;BME280;41384;51.418;7.286;2023-01-30T13:35:13;99904.88;;;6.07;88.09
55540;BME280;41384;51.418;7.286;2023-01-30T13:37:40;99906.00;;;6.12;89.69
55540;BME280;41384;51.418;7.286;2023-01-30T13:40:15;99905.78;;;6.14;88.73
55540;BME280;41384;51.418;7.286;2023-01-30T13:45:15;99913.56;;;6.07;88.28
55540;BME280;41384;51.418;7.286;2023-01-30T13:48:12;99911.28;;;6.04;89.22
55540;BME280;41384;51.418;7.286;2023-01-30T13:53:29;99915.72;;;5.95;90.33
55540;BME280;41384;51.418;7.286;2023-01-30T13:56:16;99911.66;;;5.93;88.54
55540;BME280;41384;51.418;7.286;2023-01-30T13:58:49;99930.78;;;6.02;88.89
55540;BME280;41384;51.418;7.286;2023-01-30T14:01:17;99938.47;;;6.03;92.62
55540;BME280;41384;51.418;7.286;2023-01-30T14:03:42;99920.81;;;5.97;90.95
55540;BME280;41384;51.418;7.286;2023-01-30T14:14:26;99931.97;;;6.22;87.22
55540;BME280;41384;51.418;7.286;2023-01-30T14:17:13;99952.16;;;6.13;87.66
55540;BME280;41384;51.418;7.286;2023-01-30T14:22:27;99958.09;;;6.07;87.61
55540;BME280;41384;51.418;7.286;2023-01-30T14:38:41;99975.63;;;6.07;84.94
55540;BME280;41384;51.418;7.286;2023-01-30T14:41:22;99985.13;;;5.99;84.92
55540;BME280;41384;51.418;7.286;2023-01-30T14:43:49;99971.06;;;6.01;85.89
55540;BME280;41384;51.418;7.286;2023-01-30T14:54:19;100005.44;;;6.06;86.12
55540;BME280;41384;51.418;7.286;2023-01-30T14:56:53;100015.75;;;6.07;87.98
55540;BME280;41384;51.418;7.286;2023-01-30T14:59:37;100011.81;;;6.11;88.02
55540;BME280;41384;51.418;7.286;2023-01-30T15:07:29;100032.44;;;6.15;85.46
55540;BME280;41384;51.418;7.286;2023-01-30T15:09:56;100037.31;;;6.18;85.35
55540;BME280;41384;51.418;7.286;2023-01-30T15:15:15;100045.22;;;6.09;84.68